sensor_id;sensor_type;location;lat;lon;timestamp;P1;durP1;ratioP1;P2;durP2;ratioP2
75446;SDS011;64024;55.820;37.574;2023-05-10T00:01:07;14.80;;;6.93;;
75446;SDS011;64024;55.820;37.574;2023-05-10T00:03:32;10.73;;;5.55;;
75446;SDS011;64024;55.820;37.574;2023-05-10T00:05:58;11.27;;;5.93;;
75446;SDS011;64024;55.820;37.574;2023-05-10T00:08:24;8.70;;;5.32;;
75446;SDS011;64024;55.820;37.574;2023-05-10T00:10:50;7.30;;;4.90;;
75446;SDS011;64024;55.820;37.574;2023-05-10T00:13:15;8.27;;;5.00;;
75446;SDS011;64024;55.820;37.574;2023-05-10T00:15:41;5.97;;;4.32;;
75446;SDS011;64024;55.820;37.574;2023-05-10T00:18:07;13.80;;;6.90;;
75446;SDS011;64024;55.820;37.574;2023-05-10T00:20:33;13.32;;;6.00;;
75446;SDS011;64024;55.820;37.574;2023-05-10T00:22:58;9.57;;;5.63;;
75446;SDS011;64024;55.820;37.574;2023-05-10T00:25:24;6.97;;;4.90;;
75446;SDS011;64024;55.820;37.574;2023-05-10T00:27:50;8.95;;;4.95;;
75446;SDS011;64024;55.820;37.574;2023-05-10T00:30:15;10.18;;;5.47;;
75446;SDS011;64024;55.820;37.574;2023-05-10T00:32:41;6.40;;;4.85;;
75446;SDS011;64024;55.820;37.574;2023-05-10T00:35:08;15.73;;;6.97;;
75446;SDS011;64024;55.820;37.574;2023-05-10T00:37:34;15.45;;;6.35;;
75446;SDS011;64024;55.820;37.574;2023-05-10T00:40:00;11.55;;;6.47;;
75446;SDS011;64024;55.820;37.574;2023-05-10T00:42:26;8.27;;;4.90;;
75446;SDS011;64024;55.820;37.574;2023-05-10T00:44:51;11.82;;;5.60;;
75446;SDS011;64024;55.820;37.574;2023-05-10T00:47:17;5.43;;;4.63;;
75446;SDS011;64024;55.820;37.574;2023-05-10T00:49:43;6.47;;;4.93;;
75446;SDS011;64024;55.820;37.574;2023-05-10T00:52:10;9.77;;;6.35;;
75446;SDS011;64024;55.820;37.574;2023-05-10T00:54:35;13.00;;;5.70;;
75446;SDS011;64024;55.820;37.574;2023-05-10T00:57:01;7.88;;;5.43;;
75446;SDS011;64024;55.820;37.574;2023-05-10T00:59:28;8.38;;;5.35;;
75446;SDS011;64024;55.820;37.574;2023-05-10T01:01:53;10.30;;;5.18;;
75446;SDS011;64024;55.820;37.574;2023-05-10T01:04:19;9.35;;;5.90;;
75446;SDS011;64024;55.820;37.574;2023-05-10T01:06:51;6.88;;;5.13;;
75446;SDS011;64024;55.820;37.574;2023-05-10T01:09:18;13.73;;;6.53;;
75446;SDS011;64024;55.820;37.574;2023-05-10T01:11:44;12.68;;;6.15;;
75446;SDS011;64024;55.820;37.574;2023-05-10T01:14:10;8.75;;;5.50;;
75446;SDS011;64024;55.820;37.574;2023-05-10T01:16:37;9.25;;;5.40;;
75446;SDS011;64024;55.820;37.574;2023-05-10T01:19:11;10.50;;;5.47;;
75446;SDS011;64024;55.820;37.574;2023-05-10T01:35:02;9.57;;;5.18;;
75446;SDS011;64024;55.820;37.574;2023-05-10T01:37:52;10.57;;;5.75;;
75446;SDS011;64024;55.820;37.574;2023-05-10T01:40:26;6.95;;;4.90;;
75446;SDS011;64024;55.820;37.574;2023-05-10T01:43:08;7.88;;;5.43;;
75446;SDS011;64024;55.820;37.574;2023-05-10T01:45:46;15.38;;;6.45;;
75446;SDS011;64024;55.820;37.574;2023-05-10T01:48:23;13.88;;;6.85;;
75446;SDS011;64024;55.820;37.574;2023-05-10T01:50:52;11.15;;;5.68;;
75446;SDS011;64024;55.820;37.574;2023-05-10T01:53:20;10.55;;;5.82;;
75446;SDS011;64024;55.820;37.574;2023-05-10T01:55:48;7.13;;;5.18;;
75446;SDS011;64024;55.820;37.574;2023-05-10T01:58:21;8.50;;;5.03;;
75446;SDS011;64024;55.820;37.574;2023-05-10T02:00:52;10.48;;;6.00;;
75446;SDS011;64024;55.820;37.574;2023-05-10T02:03:20;14.65;;;6.95;;
75446;SDS011;64024;55.820;37.574;2023-05-10T02:05:48;12.10;;;5.50;;
75446;SDS011;64024;55.820;37.574;2023-05-10T02:10:42;8.65;;;5.43;;
75446;SDS011;64024;55.820;37.574;2023-05-10T02:13:11;6.22;;;4.40;;
75446;SDS011;64024;55.820;37.574;2023-05-10T02:15:39;9.52;;;5.97;;
75446;SDS011;64024;55.820;37.574;2023-05-10T02:18:06;14.85;;;5.85;;
75446;SDS011;64024;55.820;37.574;2023-05-10T02:20:34;15.10;;;5.90;;
75446;SDS011;64024;55.820;37.574;2023-05-10T02:23:01;11.70;;;6.03;;
75446;SDS011;64024;55.820;37.574;2023-05-10T02:27:55;9.88;;;6.20;;
75446;SDS011;64024;55.820;37.574;2023-05-10T02:30:22;7.75;;;5.57;;
75446;SDS011;64024;55.820;37.574;2023-05-10T02:32:49;6.55;;;5.15;;
75446;SDS011;64024;55.820;37.574;2023-05-10T02:35:17;12.20;;;6.28;;
75446;SDS011;64024;55.820;37.574;2023-05-10T02:37:43;14.63;;;6.28;;
75446;SDS011;64024;55.820;37.574;2023-05-10T02:42:36;11.07;;;5.05;;
75446;SDS011;64024;55.820;37.574;2023-05-10T02:45:08;9.02;;;6.20;;
75446;SDS011;64024;55.820;37.574;2023-05-10T02:47:37;8.43;;;5.45;;
75446;SDS011;64024;55.820;37.574;2023-05-10T02:50:03;12.13;;;5.78;;
75446;SDS011;64024;55.820;37.574;2023-05-10T02:52:30;11.40;;;6.65;;
75446;SDS011;64024;55.820;37.574;2023-05-10T02:55:05;12.30;;;6.93;;
75446;SDS011;64024;55.820;37.574;2023-05-10T02:57:34;10.73;;;6.10;;
75446;SDS011;64024;55.820;37.574;2023-05-10T03:00:06;10.82;;;6.70;;
75446;SDS011;64024;55.820;37.574;2023-05-10T03:02:32;13.10;;;5.82;;
75446;SDS011;64024;55.820;37.574;2023-05-10T03:04:58;8.05;;;5.53;;
75446;SDS011;64024;55.820;37.574;2023-05-10T03:07:23;7.65;;;5.10;;
75446;SDS011;64024;55.820;37.574;2023-05-10T03:09:49;16.40;;;7.78;;
75446;SDS011;64024;55.820;37.574;2023-05-10T03:15:07;11.73;;;6.10;;
75446;SDS011;64024;55.820;37.574;2023-05-10T03:20:31;7.28;;;5.60;;
75446;SDS011;64024;55.820;37.574;2023-05-10T03:23:04;9.50;;;5.13;;
75446;SDS011;64024;55.820;37.574;2023-05-10T03:25:37;8.30;;;4.80;;
75446;SDS011;64024;55.820;37.574;2023-05-10T03:28:05;10.27;;;5.60;;
75446;SDS011;64024;55.820;37.574;2023-05-10T03:30:31;18.83;;;7.25;;
75446;SDS011;64024;55.820;37.574;2023-05-10T03:33:03;8.32;;;5.78;;
75446;SDS011;64024;55.820;37.574;2023-05-10T03:35:31;13.30;;;5.72;;
75446;SDS011;64024;55.820;37.574;2023-05-10T03:37:56;11.88;;;5.80;;
75446;SDS011;64024;55.820;37.574;2023-05-10T03:40:22;8.48;;;5.50;;
75446;SDS011;64024;55.820;37.574;2023-05-10T03:42:49;7.78;;;5.55;;
75446;SDS011;64024;55.820;37.574;2023-05-10T03:45:14;14.18;;;6.75;;
75446;SDS011;64024;55.820;37.574;2023-05-10T03:47:40;11.85;;;6.57;;
75446;SDS011;64024;55.820;37.574;2023-05-10T03:50:06;11.98;;;6.00;;
75446;SDS011;64024;55.820;37.574;2023-05-10T03:52:32;11.65;;;6.38;;
75446;SDS011;64024;55.820;37.574;2023-05-10T03:54:58;13.00;;;6.20;;
75446;SDS011;64024;55.820;37.574;2023-05-10T03:57:23;11.95;;;6.35;;
75446;SDS011;64024;55.820;37.574;2023-05-10T03:59:49;8.10;;;5.22;;
75446;SDS011;64024;55.820;37.574;2023-05-10T04:02:15;13.68;;;6.85;;
75446;SDS011;64024;55.820;37.574;2023-05-10T04:04:40;16.48;;;6.18;;
75446;SDS011;64024;55.820;37.574;2023-05-10T04:07:06;12.00;;;5.60;;
75446;SDS011;64024;55.820;37.574;2023-05-10T04:09:32;9.73;;;5.63;;
75446;SDS011;64024;55.820;37.574;2023-05-10T04:11:58;12.63;;;5.90;;
75446;SDS011;64024;55.820;37.574;2023-05-10T04:14:25;9.85;;;5.72;;
75446;SDS011;64024;55.820;37.574;2023-05-10T04:16:51;8.75;;;5.57;;
75446;SDS011;64024;55.820;37.574;2023-05-10T04:19:16;12.38;;;6.65;;
75446;SDS011;64024;55.820;37.574;2023-05-10T04:21:42;11.40;;;6.25;;
75446;SDS011;64024;55.820;37.574;2023-05-10T04:24:08;12.18;;;5.20;;
75446;SDS011;64024;55.820;37.574;2023-05-10T04:26:34;9.25;;;5.68;;
75446;SDS011;64024;55.820;37.574;2023-05-10T04:29:00;11.82;;;5.53;;
75446;SDS011;64024;55.820;37.574;2023-05-10T04:31:26;11.55;;;6.30;;
75446;SDS011;64024;55.820;37.574;2023-05-10T04:33:52;9.20;;;5.53;;
75446;SDS011;64024;55.820;37.574;2023-05-10T04:36:18;14.93;;;7.03;;
75446;SDS011;64024;55.820;37.574;2023-05-10T04:38:43;14.25;;;7.22;;
75446;SDS011;64024;55.820;37.574;2023-05-10T04:41:09;15.60;;;7.93;;
75446;SDS011;64024;55.820;37.574;2023-05-10T04:43:36;11.45;;;5.97;;
75446;SDS011;64024;55.820;37.574;2023-05-10T04:46:02;13.80;;;7.32;;
75446;SDS011;64024;55.820;37.574;2023-05-10T04:48:29;11.02;;;6.25;;
75446;SDS011;64024;55.820;37.574;2023-05-10T04:50:55;11.30;;;6.45;;
75446;SDS011;64024;55.820;37.574;2023-05-10T04:53:21;9.82;;;5.68;;
75446;SDS011;64024;55.820;37.574;2023-05-10T04:55:47;13.15;;;7.80;;
75446;SDS011;64024;55.820;37.574;2023-05-10T04:58:14;10.05;;;5.78;;
75446;SDS011;64024;55.820;37.574;2023-05-10T05:00:40;15.80;;;7.20;;
75446;SDS011;64024;55.820;37.574;2023-05-10T05:03:05;12.77;;;6.95;;
75446;SDS011;64024;55.820;37.574;2023-05-10T05:05:31;12.02;;;6.85;;
75446;SDS011;64024;55.820;37.574;2023-05-10T05:07:57;9.80;;;5.63;;
75446;SDS011;64024;55.820;37.574;2023-05-10T05:10:22;9.23;;;5.78;;
75446;SDS011;64024;55.820;37.574;2023-05-10T05:12:48;8.27;;;5.38;;
75446;SDS011;64024;55.820;37.574;2023-05-10T05:15:14;9.35;;;5.32;;
75446;SDS011;64024;55.820;37.574;2023-05-10T05:17:42;9.25;;;5.90;;
75446;SDS011;64024;55.820;37.574;2023-05-10T05:20:09;9.88;;;5.57;;
75446;SDS011;64024;55.820;37.574;2023-05-10T05:22:35;9.20;;;5.32;;
75446;SDS011;64024;55.820;37.574;2023-05-10T05:25:02;7.13;;;5.65;;
75446;SDS011;64024;55.820;37.574;2023-05-10T05:27:28;8.73;;;5.25;;
75446;SDS011;64024;55.820;37.574;2023-05-10T05:29:55;8.88;;;5.50;;
75446;SDS011;64024;55.820;37.574;2023-05-10T05:32:22;8.55;;;5.38;;
75446;SDS011;64024;55.820;37.574;2023-05-10T05:34:48;12.15;;;6.05;;
75446;SDS011;64024;55.820;37.574;2023-05-10T05:37:15;8.10;;;5.03;;
75446;SDS011;64024;55.820;37.574;2023-05-10T05:39:41;9.82;;;5.72;;
75446;SDS011;64024;55.820;37.574;2023-05-10T05:42:08;9.68;;;6.22;;
75446;SDS011;64024;55.820;37.574;2023-05-10T05:44:34;9.82;;;5.22;;
75446;SDS011;64024;55.820;37.574;2023-05-10T05:47:00;8.40;;;5.20;;
75446;SDS011;64024;55.820;37.574;2023-05-10T05:49:25;11.30;;;5.38;;
75446;SDS011;64024;55.820;37.574;2023-05-10T05:51:51;9.95;;;6.28;;
75446;SDS011;64024;55.820;37.574;2023-05-10T05:54:17;9.70;;;5.60;;
75446;SDS011;64024;55.820;37.574;2023-05-10T05:56:42;7.32;;;5.55;;
75446;SDS011;64024;55.820;37.574;2023-05-10T05:59:09;8.60;;;5.28;;
75446;SDS011;64024;55.820;37.574;2023-05-10T06:01:36;9.73;;;5.25;;
75446;SDS011;64024;55.820;37.574;2023-05-10T06:04:01;8.75;;;5.15;;
75446;SDS011;64024;55.820;37.574;2023-05-10T06:06:27;12.23;;;5.50;;
75446;SDS011;64024;55.820;37.574;2023-05-10T06:08:53;13.40;;;6.03;;
75446;SDS011;64024;55.820;37.574;2023-05-10T06:11:19;7.90;;;4.82;;
75446;SDS011;64024;55.820;37.574;2023-05-10T06:13:46;8.15;;;5.45;;
75446;SDS011;64024;55.820;37.574;2023-05-10T06:16:12;8.13;;;5.43;;
75446;SDS011;64024;55.820;37.574;2023-05-10T06:18:38;8.20;;;4.78;;
75446;SDS011;64024;55.820;37.574;2023-05-10T06:21:03;8.93;;;4.82;;
75446;SDS011;64024;55.820;37.574;2023-05-10T06:23:29;10.75;;;5.10;;
75446;SDS011;64024;55.820;37.574;2023-05-10T06:25:55;9.80;;;5.50;;
75446;SDS011;64024;55.820;37.574;2023-05-10T06:28:21;7.72;;;4.72;;
75446;SDS011;64024;55.820;37.574;2023-05-10T06:30:47;5.50;;;3.65;;
75446;SDS011;64024;55.820;37.574;2023-05-10T06:33:13;4.70;;;3.35;;
75446;SDS011;64024;55.820;37.574;2023-05-10T06:35:38;10.77;;;5.20;;
75446;SDS011;64024;55.820;37.574;2023-05-10T06:38:04;9.18;;;3.65;;
75446;SDS011;64024;55.820;37.574;2023-05-10T06:40:30;8.90;;;4.97;;
75446;SDS011;64024;55.820;37.574;2023-05-10T06:42:55;6.25;;;3.78;;
75446;SDS011;64024;55.820;37.574;2023-05-10T06:45:21;10.70;;;3.90;;
75446;SDS011;64024;55.820;37.574;2023-05-10T06:47:47;6.28;;;3.25;;
75446;SDS011;64024;55.820;37.574;2023-05-10T06:50:13;4.97;;;2.95;;
75446;SDS011;64024;55.820;37.574;2023-05-10T06:52:38;7.10;;;3.35;;
75446;SDS011;64024;55.820;37.574;2023-05-10T06:55:05;4.57;;;3.00;;
75446;SDS011;64024;55.820;37.574;2023-05-10T06:57:31;4.57;;;2.80;;
75446;SDS011;64024;55.820;37.574;2023-05-10T06:59:59;4.65;;;2.95;;
75446;SDS011;64024;55.820;37.574;2023-05-10T07:02:25;3.97;;;2.58;;
75446;SDS011;64024;55.820;37.574;2023-05-10T07:04:51;4.07;;;2.75;;
75446;SDS011;64024;55.820;37.574;2023-05-10T07:07:17;4.22;;;2.40;;
75446;SDS011;64024;55.820;37.574;2023-05-10T07:09:43;8.93;;;3.97;;
75446;SDS011;64024;55.820;37.574;2023-05-10T07:12:10;6.30;;;3.17;;
75446;SDS011;64024;55.820;37.574;2023-05-10T07:14:35;5.43;;;2.83;;
75446;SDS011;64024;55.820;37.574;2023-05-10T07:17:01;4.95;;;2.70;;
75446;SDS011;64024;55.820;37.574;2023-05-10T07:19:27;4.68;;;2.55;;
75446;SDS011;64024;55.820;37.574;2023-05-10T07:21:54;3.78;;;2.30;;
75446;SDS011;64024;55.820;37.574;2023-05-10T07:24:20;4.78;;;3.28;;
75446;SDS011;64024;55.820;37.574;2023-05-10T07:26:45;6.10;;;2.85;;
75446;SDS011;64024;55.820;37.574;2023-05-10T07:29:11;3.90;;;2.55;;
75446;SDS011;64024;55.820;37.574;2023-05-10T07:31:37;3.70;;;2.65;;
75446;SDS011;64024;55.820;37.574;2023-05-10T07:34:03;3.70;;;2.10;;
75446;SDS011;64024;55.820;37.574;2023-05-10T07:36:28;3.42;;;1.90;;
75446;SDS011;64024;55.820;37.574;2023-05-10T07:38:54;4.55;;;2.15;;
75446;SDS011;64024;55.820;37.574;2023-05-10T07:41:19;2.65;;;1.85;;
75446;SDS011;64024;55.820;37.574;2023-05-10T07:43:46;4.60;;;2.50;;
75446;SDS011;64024;55.820;37.574;2023-05-10T07:46:11;5.75;;;2.38;;
75446;SDS011;64024;55.820;37.574;2023-05-10T07:48:37;3.95;;;2.25;;
75446;SDS011;64024;55.820;37.574;2023-05-10T07:51:03;3.40;;;2.42;;
75446;SDS011;64024;55.820;37.574;2023-05-10T07:53:28;3.60;;;2.20;;
75446;SDS011;64024;55.820;37.574;2023-05-10T07:55:57;3.03;;;2.20;;
75446;SDS011;64024;55.820;37.574;2023-05-10T07:58:23;4.55;;;2.13;;
75446;SDS011;64024;55.820;37.574;2023-05-10T08:00:49;10.15;;;2.75;;
75446;SDS011;64024;55.820;37.574;2023-05-10T08:03:15;4.85;;;2.03;;
75446;SDS011;64024;55.820;37.574;2023-05-10T08:05:41;2.85;;;1.92;;
75446;SDS011;64024;55.820;37.574;2023-05-10T08:08:07;3.38;;;1.95;;
75446;SDS011;64024;55.820;37.574;2023-05-10T08:10:33;4.82;;;2.60;;
75446;SDS011;64024;55.820;37.574;2023-05-10T08:12:58;3.20;;;2.17;;
75446;SDS011;64024;55.820;37.574;2023-05-10T08:15:24;2.95;;;2.38;;
75446;SDS011;64024;55.820;37.574;2023-05-10T08:17:53;3.22;;;2.05;;
75446;SDS011;64024;55.820;37.574;2023-05-10T08:20:19;3.58;;;2.03;;
75446;SDS011;64024;55.820;37.574;2023-05-10T08:22:45;7.22;;;2.65;;
75446;SDS011;64024;55.820;37.574;2023-05-10T08:25:11;6.32;;;2.72;;
75446;SDS011;64024;55.820;37.574;2023-05-10T08:27:37;12.05;;;2.90;;
75446;SDS011;64024;55.820;37.574;2023-05-10T08:30:02;6.57;;;2.10;;
75446;SDS011;64024;55.820;37.574;2023-05-10T08:32:28;3.75;;;2.63;;
75446;SDS011;64024;55.820;37.574;2023-05-10T08:34:54;4.72;;;2.40;;
75446;SDS011;64024;55.820;37.574;2023-05-10T08:37:20;4.57;;;2.40;;
75446;SDS011;64024;55.820;37.574;2023-05-10T08:39:47;10.00;;;3.08;;
75446;SDS011;64024;55.820;37.574;2023-05-10T08:42:13;5.40;;;3.17;;
75446;SDS011;64024;55.820;37.574;2023-05-10T08:44:44;18.73;;;3.75;;
75446;SDS011;64024;55.820;37.574;2023-05-10T08:47:13;8.48;;;2.58;;
75446;SDS011;64024;55.820;37.574;2023-05-10T08:49:42;7.00;;;3.42;;
75446;SDS011;64024;55.820;37.574;2023-05-10T08:52:09;3.72;;;2.70;;
75446;SDS011;64024;55.820;37.574;2023-05-10T08:54:38;7.65;;;2.63;;
75446;SDS011;64024;55.820;37.574;2023-05-10T08:57:04;3.85;;;1.60;;
75446;SDS011;64024;55.820;37.574;2023-05-10T08:59:30;6.25;;;2.10;;
75446;SDS011;64024;55.820;37.574;2023-05-10T09:01:58;3.17;;;1.35;;
75446;SDS011;64024;55.820;37.574;2023-05-10T09:04:25;2.70;;;1.52;;
75446;SDS011;64024;55.820;37.574;2023-05-10T09:06:51;2.28;;;1.80;;
75446;SDS011;64024;55.820;37.574;2023-05-10T09:09:17;2.75;;;1.70;;
75446;SDS011;64024;55.820;37.574;2023-05-10T09:11:44;4.53;;;2.30;;
75446;SDS011;64024;55.820;37.574;2023-05-10T09:14:11;3.63;;;1.85;;
75446;SDS011;64024;55.820;37.574;2023-05-10T09:16:39;4.93;;;2.10;;
75446;SDS011;64024;55.820;37.574;2023-05-10T09:19:05;10.27;;;2.10;;
75446;SDS011;64024;55.820;37.574;2023-05-10T09:21:32;4.63;;;3.25;;
75446;SDS011;64024;55.820;37.574;2023-05-10T09:24:02;4.40;;;3.33;;
75446;SDS011;64024;55.820;37.574;2023-05-10T09:26:28;6.28;;;3.10;;
75446;SDS011;64024;55.820;37.574;2023-05-10T09:28:55;7.80;;;3.53;;
75446;SDS011;64024;55.820;37.574;2023-05-10T09:31:22;4.47;;;2.50;;
75446;SDS011;64024;55.820;37.574;2023-05-10T09:33:50;5.05;;;2.90;;
75446;SDS011;64024;55.820;37.574;2023-05-10T09:36:16;4.63;;;3.38;;
75446;SDS011;64024;55.820;37.574;2023-05-10T09:39:00;5.00;;;3.13;;
75446;SDS011;64024;55.820;37.574;2023-05-10T09:41:27;3.97;;;2.45;;
75446;SDS011;64024;55.820;37.574;2023-05-10T09:43:56;3.05;;;2.75;;
75446;SDS011;64024;55.820;37.574;2023-05-10T09:46:22;4.25;;;3.03;;
75446;SDS011;64024;55.820;37.574;2023-05-10T09:48:49;5.13;;;2.63;;
75446;SDS011;64024;55.820;37.574;2023-05-10T09:51:24;4.05;;;2.58;;
75446;SDS011;64024;55.820;37.574;2023-05-10T09:56:40;3.60;;;2.25;;
75446;SDS011;64024;55.820;37.574;2023-05-10T09:59:10;3.83;;;1.90;;
75446;SDS011;64024;55.820;37.574;2023-05-10T10:01:38;4.00;;;2.05;;
75446;SDS011;64024;55.820;37.574;2023-05-10T10:04:08;7.00;;;3.00;;
75446;SDS011;64024;55.820;37.574;2023-05-10T10:06:35;3.95;;;2.35;;
75446;SDS011;64024;55.820;37.574;2023-05-10T10:09:02;4.72;;;3.30;;
75446;SDS011;64024;55.820;37.574;2023-05-10T10:11:28;4.38;;;3.00;;
75446;SDS011;64024;55.820;37.574;2023-05-10T10:13:53;4.78;;;3.20;;
75446;SDS011;64024;55.820;37.574;2023-05-10T10:16:19;4.75;;;3.38;;
75446;SDS011;64024;55.820;37.574;2023-05-10T10:18:46;3.90;;;2.10;;
75446;SDS011;64024;55.820;37.574;2023-05-10T10:21:13;4.38;;;1.75;;
75446;SDS011;64024;55.820;37.574;2023-05-10T10:23:40;4.18;;;1.70;;
75446;SDS011;64024;55.820;37.574;2023-05-10T10:26:06;2.60;;;1.65;;
75446;SDS011;64024;55.820;37.574;2023-05-10T10:31:34;2.17;;;1.27;;
75446;SDS011;64024;55.820;37.574;2023-05-10T10:36:39;3.50;;;1.55;;
75446;SDS011;64024;55.820;37.574;2023-05-10T10:39:10;2.38;;;1.20;;
75446;SDS011;64024;55.820;37.574;2023-05-10T10:41:40;3.10;;;1.52;;
75446;SDS011;64024;55.820;37.574;2023-05-10T10:47:09;2.53;;;1.77;;
75446;SDS011;64024;55.820;37.574;2023-05-10T10:49:50;3.83;;;1.90;;
75446;SDS011;64024;55.820;37.574;2023-05-10T10:52:27;6.47;;;3.05;;
75446;SDS011;64024;55.820;37.574;2023-05-10T10:54:58;6.07;;;2.00;;
75446;SDS011;64024;55.820;37.574;2023-05-10T10:57:31;2.08;;;1.40;;
75446;SDS011;64024;55.820;37.574;2023-05-10T11:00:18;2.50;;;1.70;;
75446;SDS011;64024;55.820;37.574;2023-05-10T11:02:56;10.98;;;1.67;;
75446;SDS011;64024;55.820;37.574;2023-05-10T11:07:51;6.38;;;2.47;;
75446;SDS011;64024;55.820;37.574;2023-05-10T11:10:19;7.32;;;2.63;;
75446;SDS011;64024;55.820;37.574;2023-05-10T11:13:04;5.70;;;2.25;;
75446;SDS011;64024;55.820;37.574;2023-05-10T11:15:32;3.88;;;2.30;;
75446;SDS011;64024;55.820;37.574;2023-05-10T11:17:59;5.93;;;2.50;;
75446;SDS011;64024;55.820;37.574;2023-05-10T11:20:41;3.22;;;1.73;;
75446;SDS011;64024;55.820;37.574;2023-05-10T11:23:16;3.28;;;1.80;;
75446;SDS011;64024;55.820;37.574;2023-05-10T11:25:43;3.17;;;1.92;;
75446;SDS011;64024;55.820;37.574;2023-05-10T11:28:10;2.67;;;1.98;;
75446;SDS011;64024;55.820;37.574;2023-05-10T11:30:38;3.80;;;1.98;;
75446;SDS011;64024;55.820;37.574;2023-05-10T11:33:05;4.00;;;2.65;;
75446;SDS011;64024;55.820;37.574;2023-05-10T11:35:36;3.03;;;2.35;;
75446;SDS011;64024;55.820;37.574;2023-05-10T11:38:07;4.45;;;2.70;;
75446;SDS011;64024;55.820;37.574;2023-05-10T11:40:37;3.35;;;2.42;;
75446;SDS011;64024;55.820;37.574;2023-05-10T11:43:03;4.47;;;2.00;;
75446;SDS011;64024;55.820;37.574;2023-05-10T11:45:33;3.53;;;2.00;;
75446;SDS011;64024;55.820;37.574;2023-05-10T11:48:00;4.95;;;2.33;;
75446;SDS011;64024;55.820;37.574;2023-05-10T11:50:26;3.40;;;1.65;;
75446;SDS011;64024;55.820;37.574;2023-05-10T11:52:53;6.60;;;1.70;;
75446;SDS011;64024;55.820;37.574;2023-05-10T11:55:19;2.28;;;1.48;;
75446;SDS011;64024;55.820;37.574;2023-05-10T11:57:45;3.55;;;1.40;;
75446;SDS011;64024;55.820;37.574;2023-05-10T12:00:12;8.90;;;1.83;;
75446;SDS011;64024;55.820;37.574;2023-05-10T12:02:39;2.85;;;1.42;;
75446;SDS011;64024;55.820;37.574;2023-05-10T12:05:05;6.55;;;1.60;;
75446;SDS011;64024;55.820;37.574;2023-05-10T12:07:32;5.82;;;2.00;;
75446;SDS011;64024;55.820;37.574;2023-05-10T12:12:39;3.55;;;1.50;;
75446;SDS011;64024;55.820;37.574;2023-05-10T12:15:10;1.63;;;1.20;;
75446;SDS011;64024;55.820;37.574;2023-05-10T12:17:38;5.35;;;2.30;;
75446;SDS011;64024;55.820;37.574;2023-05-10T12:20:23;6.43;;;2.15;;
75446;SDS011;64024;55.820;37.574;2023-05-10T12:22:53;3.50;;;1.85;;
75446;SDS011;64024;55.820;37.574;2023-05-10T12:25:21;3.45;;;1.70;;
75446;SDS011;64024;55.820;37.574;2023-05-10T12:27:53;2.95;;;1.52;;
75446;SDS011;64024;55.820;37.574;2023-05-10T12:30:21;2.20;;;1.33;;
75446;SDS011;64024;55.820;37.574;2023-05-10T12:32:50;2.53;;;1.48;;
75446;SDS011;64024;55.820;37.574;2023-05-10T12:35:16;8.63;;;2.13;;
75446;SDS011;64024;55.820;37.574;2023-05-10T12:37:46;4.30;;;2.13;;
75446;SDS011;64024;55.820;37.574;2023-05-10T12:40:11;5.55;;;1.58;;
75446;SDS011;64024;55.820;37.574;2023-05-10T12:42:37;5.63;;;1.83;;
75446;SDS011;64024;55.820;37.574;2023-05-10T12:45:04;4.30;;;2.00;;
75446;SDS011;64024;55.820;37.574;2023-05-10T12:47:31;3.38;;;1.42;;
75446;SDS011;64024;55.820;37.574;2023-05-10T12:49:59;2.50;;;1.52;;
75446;SDS011;64024;55.820;37.574;2023-05-10T12:54:51;4.93;;;2.45;;
75446;SDS011;64024;55.820;37.574;2023-05-10T12:57:17;4.53;;;2.60;;
75446;SDS011;64024;55.820;37.574;2023-05-10T12:59:43;8.98;;;2.67;;
75446;SDS011;64024;55.820;37.574;2023-05-10T13:02:09;2.10;;;1.40;;
75446;SDS011;64024;55.820;37.574;2023-05-10T13:04:35;3.22;;;1.38;;
75446;SDS011;64024;55.820;37.574;2023-05-10T13:07:04;3.05;;;1.80;;
75446;SDS011;64024;55.820;37.574;2023-05-10T13:09:32;6.25;;;3.13;;
75446;SDS011;64024;55.820;37.574;2023-05-10T13:11:58;4.30;;;2.45;;
75446;SDS011;64024;55.820;37.574;2023-05-10T13:14:24;3.15;;;2.00;;
75446;SDS011;64024;55.820;37.574;2023-05-10T13:16:49;6.82;;;2.15;;
75446;SDS011;64024;55.820;37.574;2023-05-10T13:19:15;2.30;;;2.03;;
75446;SDS011;64024;55.820;37.574;2023-05-10T13:21:41;3.97;;;2.53;;
75446;SDS011;64024;55.820;37.574;2023-05-10T13:24:07;2.97;;;2.10;;
75446;SDS011;64024;55.820;37.574;2023-05-10T13:26:33;3.92;;;1.90;;
75446;SDS011;64024;55.820;37.574;2023-05-10T13:28:59;5.35;;;2.30;;
75446;SDS011;64024;55.820;37.574;2023-05-10T13:31:25;5.35;;;1.80;;
75446;SDS011;64024;55.820;37.574;2023-05-10T13:33:50;4.65;;;2.08;;
75446;SDS011;64024;55.820;37.574;2023-05-10T13:36:16;3.03;;;1.80;;
75446;SDS011;64024;55.820;37.574;2023-05-10T13:38:42;4.45;;;1.75;;
75446;SDS011;64024;55.820;37.574;2023-05-10T13:41:07;2.55;;;1.60;;
75446;SDS011;64024;55.820;37.574;2023-05-10T13:43:33;4.55;;;2.33;;
75446;SDS011;64024;55.820;37.574;2023-05-10T13:45:59;8.93;;;2.17;;
75446;SDS011;64024;55.820;37.574;2023-05-10T13:48:24;5.78;;;2.40;;
75446;SDS011;64024;55.820;37.574;2023-05-10T13:50:50;5.15;;;2.55;;
75446;SDS011;64024;55.820;37.574;2023-05-10T13:53:16;3.58;;;2.47;;
75446;SDS011;64024;55.820;37.574;2023-05-10T13:55:41;4.65;;;2.35;;
75446;SDS011;64024;55.820;37.574;2023-05-10T13:58:07;5.00;;;3.28;;
75446;SDS011;64024;55.820;37.574;2023-05-10T14:00:33;7.47;;;3.08;;
75446;SDS011;64024;55.820;37.574;2023-05-10T14:02:58;3.38;;;2.85;;
75446;SDS011;64024;55.820;37.574;2023-05-10T14:05:24;3.17;;;2.17;;
75446;SDS011;64024;55.820;37.574;2023-05-10T14:07:50;4.07;;;2.22;;
75446;SDS011;64024;55.820;37.574;2023-05-10T14:10:16;2.60;;;2.10;;
75446;SDS011;64024;55.820;37.574;2023-05-10T14:12:41;2.85;;;2.03;;
75446;SDS011;64024;55.820;37.574;2023-05-10T14:15:07;3.83;;;2.22;;
75446;SDS011;64024;55.820;37.574;2023-05-10T14:17:35;3.40;;;2.30;;
75446;SDS011;64024;55.820;37.574;2023-05-10T14:20:01;6.35;;;3.03;;
75446;SDS011;64024;55.820;37.574;2023-05-10T14:22:27;5.50;;;2.25;;
75446;SDS011;64024;55.820;37.574;2023-05-10T14:24:53;5.00;;;2.20;;
75446;SDS011;64024;55.820;37.574;2023-05-10T14:27:18;4.45;;;2.90;;
75446;SDS011;64024;55.820;37.574;2023-05-10T14:29:44;4.03;;;2.95;;
75446;SDS011;64024;55.820;37.574;2023-05-10T14:32:09;4.28;;;3.50;;
75446;SDS011;64024;55.820;37.574;2023-05-10T14:34:35;3.40;;;2.92;;
75446;SDS011;64024;55.820;37.574;2023-05-10T14:37:01;2.85;;;2.42;;
75446;SDS011;64024;55.820;37.574;2023-05-10T14:39:26;3.83;;;3.13;;
75446;SDS011;64024;55.820;37.574;2023-05-10T14:41:55;3.45;;;3.15;;
75446;SDS011;64024;55.820;37.574;2023-05-10T14:44:20;4.05;;;3.10;;
75446;SDS011;64024;55.820;37.574;2023-05-10T14:46:46;4.10;;;2.65;;
75446;SDS011;64024;55.820;37.574;2023-05-10T14:49:13;5.05;;;2.60;;
75446;SDS011;64024;55.820;37.574;2023-05-10T14:51:40;2.67;;;2.30;;
75446;SDS011;64024;55.820;37.574;2023-05-10T14:54:06;3.72;;;2.47;;
75446;SDS011;64024;55.820;37.574;2023-05-10T14:56:32;5.07;;;2.70;;
75446;SDS011;64024;55.820;37.574;2023-05-10T14:58:58;3.55;;;2.22;;
75446;SDS011;64024;55.820;37.574;2023-05-10T15:01:25;3.75;;;2.42;;
75446;SDS011;64024;55.820;37.574;2023-05-10T15:03:51;4.30;;;2.10;;
75446;SDS011;64024;55.820;37.574;2023-05-10T15:06:16;3.30;;;2.15;;
75446;SDS011;64024;55.820;37.574;2023-05-10T15:08:42;3.35;;;2.60;;
75446;SDS011;64024;55.820;37.574;2023-05-10T15:11:08;4.38;;;2.40;;
75446;SDS011;64024;55.820;37.574;2023-05-10T15:13:34;4.68;;;2.35;;
75446;SDS011;64024;55.820;37.574;2023-05-10T15:15:59;3.65;;;2.53;;